createdAt,value
2023-04-11T00:00:39.218Z, 35.07
2023-04-11T00:01:39.284Z, 35.05
2023-04-11T00:02:39.389Z, 35.11
2023-04-11T00:03:39.577Z, 35.13
2023-04-11T00:04:39.492Z, 35.04
2023-04-11T00:05:39.242Z, 35.03
2023-04-11T00:06:39.300Z, 35.02
2023-04-11T00:07:39.258Z, 35.04
2023-04-11T00:08:39.255Z, 34.99
2023-04-11T00:09:39.266Z, 34.95
2023-04-11T00:10:39.262Z, 34.94
2023-04-11T00:11:39.276Z, 34.95
2023-04-11T00:12:39.282Z, 34.95
2023-04-11T00:13:39.354Z, 34.92
2023-04-11T00:14:39.339Z, 34.91
2023-04-11T00:15:39.449Z, 34.93
2023-04-11T00:16:39.411Z, 34.94
2023-04-11T00:17:39.377Z, 34.93
2023-04-11T00:18:39.436Z, 34.92
2023-04-11T00:19:39.416Z, 34.88
2023-04-11T00:20:39.472Z, 34.86
2023-04-11T00:21:39.440Z, 34.84
2023-04-11T00:22:39.516Z, 34.85
2023-04-11T00:23:39.460Z, 34.85
2023-04-11T00:24:39.563Z, 34.82
2023-04-11T00:25:39.558Z, 34.84
2023-04-11T00:26:39.535Z, 34.78
2023-04-11T00:27:39.529Z, 34.77
2023-04-11T00:28:39.532Z, 34.78
2023-04-11T00:29:39.590Z, 34.80
2023-04-11T00:30:39.557Z, 34.80
2023-04-11T00:31:39.677Z, 34.76
2023-04-11T00:32:39.605Z, 34.76
2023-04-11T00:33:40.918Z, 34.73
2023-04-11T00:34:39.608Z, 34.74
2023-04-11T00:35:39.681Z, 34.72
2023-04-11T00:36:39.720Z, 34.74
2023-04-11T00:37:39.617Z, 34.71
2023-04-11T00:38:39.690Z, 34.70
2023-04-11T00:39:39.653Z, 34.72
2023-04-11T00:40:39.697Z, 34.69
2023-04-11T00:41:39.677Z, 34.66
2023-04-11T00:42:39.694Z, 34.65
2023-04-11T00:43:39.687Z, 34.65
2023-04-11T00:44:39.681Z, 34.64
2023-04-11T00:45:39.715Z, 34.64
2023-04-11T00:46:39.713Z, 34.62
2023-04-11T00:47:39.832Z, 34.61
2023-04-11T00:48:39.761Z, 34.59
2023-04-11T00:49:39.825Z, 34.57
2023-04-11T00:50:39.782Z, 34.58
2023-04-11T00:51:39.840Z, 34.60
2023-04-11T00:52:39.801Z, 34.60
2023-04-11T00:53:39.835Z, 34.56
2023-04-11T00:54:39.826Z, 34.55
2023-04-11T00:55:39.831Z, 34.55
2023-04-11T00:56:39.834Z, 34.52
2023-04-11T00:57:39.833Z, 34.53
2023-04-11T00:58:39.874Z, 34.51
2023-04-11T00:59:39.856Z, 34.56
2023-04-11T01:00:39.908Z, 34.53
2023-04-11T01:01:40.016Z, 34.48
2023-04-11T01:02:39.990Z, 34.48
2023-04-11T01:03:40.007Z, 34.44
2023-04-11T01:04:39.915Z, 34.43
2023-04-11T01:05:39.916Z, 34.44
2023-04-11T01:06:39.917Z, 34.42
2023-04-11T01:07:40.051Z, 34.39
2023-04-11T01:08:39.957Z, 34.42
2023-04-11T01:09:40.054Z, 34.43
2023-04-11T01:10:40.036Z, 34.40
2023-04-11T01:11:40.070Z, 34.39
2023-04-11T01:12:40.059Z, 34.37
2023-04-11T01:13:40.126Z, 34.37
2023-04-11T01:14:40.093Z, 34.39
2023-04-11T01:15:40.143Z, 34.39
2023-04-11T01:16:40.196Z, 34.39
2023-04-11T01:17:40.152Z, 34.38
2023-04-11T01:18:40.133Z, 34.36
2023-04-11T01:19:40.122Z, 34.35
2023-04-11T01:20:40.128Z, 34.33
2023-04-11T01:21:40.152Z, 34.31
2023-04-11T01:22:40.153Z, 34.31
2023-04-11T01:23:40.160Z, 34.29
2023-04-11T01:24:40.224Z, 34.32
2023-04-11T01:25:40.206Z, 34.26
2023-04-11T01:26:40.251Z, 34.26
2023-04-11T01:27:40.212Z, 34.24
2023-04-11T01:28:40.225Z, 34.25
2023-04-11T01:29:40.220Z, 34.27
2023-04-11T01:30:40.274Z, 34.26
2023-04-11T01:31:40.338Z, 34.26
2023-04-11T01:32:40.324Z, 34.26
2023-04-11T01:33:40.356Z, 34.27
2023-04-11T01:34:40.361Z, 34.26
2023-04-11T01:35:40.419Z, 34.23
2023-04-11T01:36:40.366Z, 34.21
2023-04-11T01:37:40.403Z, 34.19
2023-04-11T01:38:40.392Z, 34.17
2023-04-11T01:39:40.445Z, 34.21
2023-04-11T01:40:40.412Z, 34.22
2023-04-11T01:41:40.426Z, 34.21
2023-04-11T01:42:40.422Z, 34.18
2023-04-11T01:43:40.418Z, 34.21
2023-04-11T01:44:40.503Z, 34.15
2023-04-11T01:45:40.481Z, 34.13
2023-04-11T01:46:40.485Z, 34.13
2023-04-11T01:47:40.562Z, 34.15
2023-04-11T01:48:40.676Z, 34.10
2023-04-11T01:49:40.490Z, 34.11
2023-04-11T01:50:40.491Z, 34.12
2023-04-11T01:51:40.553Z, 34.11
2023-04-11T01:52:40.522Z, 34.07
2023-04-11T01:53:40.608Z, 34.05
2023-04-11T01:54:40.575Z, 34.02
2023-04-11T01:55:40.608Z, 33.99
2023-04-11T01:56:40.593Z, 34.00
2023-04-11T01:57:40.639Z, 34.04
2023-04-11T01:58:40.611Z, 34.02
2023-04-11T01:59:40.616Z, 34.01
2023-04-11T02:00:40.615Z, 34.00
2023-04-11T02:01:40.718Z, 34.03
2023-04-11T02:02:40.798Z, 34.03
2023-04-11T02:03:40.855Z, 33.99
2023-04-11T02:04:40.688Z, 33.96
2023-04-11T02:05:40.708Z, 33.96
2023-04-11T02:06:40.707Z, 33.93
2023-04-11T02:07:40.707Z, 33.90
2023-04-11T02:08:40.725Z, 33.91
2023-04-11T02:09:40.733Z, 33.90
2023-04-11T02:10:40.817Z, 33.91
2023-04-11T02:11:40.787Z, 33.92
2023-04-11T02:12:40.863Z, 33.91
2023-04-11T02:13:40.815Z, 33.89
2023-04-11T02:14:40.824Z, 33.92
2023-04-11T02:15:40.831Z, 33.92
2023-04-11T02:16:40.820Z, 33.92
2023-04-11T02:17:40.868Z, 33.90
2023-04-11T02:18:40.831Z, 33.85
2023-04-11T02:19:40.857Z, 33.85
2023-04-11T02:20:40.861Z, 33.82
2023-04-11T02:21:40.880Z, 33.82
2023-04-11T02:22:40.874Z, 33.80
2023-04-11T02:23:40.912Z, 33.84
2023-04-11T02:24:40.888Z, 33.85
2023-04-11T02:25:40.988Z, 33.82
2023-04-11T02:26:41.005Z, 33.78
2023-04-11T02:27:40.990Z, 33.76
2023-04-11T02:28:41.017Z, 33.75
2023-04-11T02:29:41.001Z, 33.74
2023-04-11T02:30:41.057Z, 33.75
2023-04-11T02:31:41.198Z, 33.73
2023-04-11T02:32:41.278Z, 33.72
2023-04-11T02:33:41.262Z, 33.69
2023-04-11T02:34:41.134Z, 33.67
2023-04-11T02:35:41.150Z, 33.70
2023-04-11T02:36:41.133Z, 33.70
2023-04-11T02:37:41.255Z, 33.71
2023-04-11T02:38:41.254Z, 33.74
2023-04-11T02:39:41.256Z, 33.75
2023-04-11T02:40:41.296Z, 33.75
2023-04-11T02:41:41.276Z, 33.72
2023-04-11T02:42:41.249Z, 33.71
2023-04-11T02:43:41.250Z, 33.70
2023-04-11T02:44:41.253Z, 33.70
2023-04-11T02:45:41.266Z, 33.65
2023-04-11T02:46:41.277Z, 33.64
2023-04-11T02:47:41.344Z, 33.64
2023-04-11T02:48:41.406Z, 33.67
2023-04-11T02:49:41.408Z, 33.60
2023-04-11T02:50:41.421Z, 33.58
2023-04-11T02:51:41.396Z, 33.55
2023-04-11T02:52:41.397Z, 33.59
2023-04-11T02:53:41.405Z, 33.62
2023-04-11T02:54:41.398Z, 33.60
2023-04-11T02:55:41.404Z, 33.55
2023-04-11T02:56:41.399Z, 33.54
2023-04-11T02:57:41.409Z, 33.50
2023-04-11T02:58:41.428Z, 33.51
2023-04-11T02:59:41.435Z, 33.51
2023-04-11T03:00:41.428Z, 33.46
2023-04-11T03:01:41.699Z, 33.45
2023-04-11T03:02:41.786Z, 33.43
2023-04-11T03:03:41.616Z, 33.45
2023-04-11T03:04:41.572Z, 33.46
2023-04-11T03:05:41.544Z, 33.44
2023-04-11T03:06:41.558Z, 33.42
2023-04-11T03:07:41.548Z, 33.44
2023-04-11T03:08:41.710Z, 33.46
2023-04-11T03:09:41.572Z, 33.42
2023-04-11T03:10:41.696Z, 33.41
2023-04-11T03:11:41.692Z, 33.41
2023-04-11T03:12:41.696Z, 33.40
2023-04-11T03:13:41.697Z, 33.37
2023-04-11T03:14:41.700Z, 33.37
2023-04-11T03:15:41.795Z, 33.37
2023-04-11T03:16:41.701Z, 33.37
2023-04-11T03:17:41.739Z, 33.36
2023-04-11T03:18:41.692Z, 33.34
2023-04-11T03:19:41.706Z, 33.34
2023-04-11T03:20:41.703Z, 33.36
2023-04-11T03:21:41.729Z, 33.34
2023-04-11T03:22:41.856Z, 33.32
2023-04-11T03:23:41.730Z, 33.29
2023-04-11T03:24:41.841Z, 33.29
2023-04-11T03:25:41.740Z, 33.28
2023-04-11T03:26:41.844Z, 33.30
2023-04-11T03:27:41.843Z, 33.29
2023-04-11T03:28:41.855Z, 33.26
2023-04-11T03:29:41.852Z, 33.27
2023-04-11T03:30:41.872Z, 33.28
2023-04-11T03:31:41.927Z, 34.26
2023-04-11T03:32:41.928Z, 36.52
2023-04-11T03:33:41.878Z, 38.34
2023-04-11T03:34:41.858Z, 39.38
2023-04-11T03:35:42.028Z, 40.14
2023-04-11T03:36:41.998Z, 40.78
2023-04-11T03:37:42.013Z, 41.29
2023-04-11T03:38:42.011Z, 41.70
2023-04-11T03:39:42.001Z, 42.09
2023-04-11T03:40:41.997Z, 42.50
2023-04-11T03:41:42.015Z, 42.87
2023-04-11T03:42:42.001Z, 43.22
2023-04-11T03:43:42.004Z, 43.57
2023-04-11T03:44:41.998Z, 43.95
2023-04-11T03:45:42.002Z, 44.27
2023-04-11T03:46:42.094Z, 44.52
2023-04-11T03:47:42.110Z, 44.74
2023-04-11T03:48:42.142Z, 44.95
2023-04-11T03:49:42.152Z, 45.09
2023-04-11T03:50:42.141Z, 45.27
2023-04-11T03:51:42.143Z, 45.36
2023-04-11T03:52:42.160Z, 45.47
2023-04-11T03:53:42.141Z, 45.59
2023-04-11T03:54:42.135Z, 45.67
2023-04-11T03:55:42.148Z, 45.75
2023-04-11T03:56:42.136Z, 45.77
2023-04-11T03:57:42.265Z, 45.84
2023-04-11T03:58:42.165Z, 45.88
2023-04-11T03:59:42.249Z, 45.86
2023-04-11T04:00:42.233Z, 45.88
2023-04-11T04:01:42.286Z, 45.68
2023-04-11T04:02:42.507Z, 45.95
2023-04-11T04:03:42.588Z, 48.22
2023-04-11T04:04:42.293Z, 50.86
2023-04-11T04:05:42.260Z, 54.43
2023-04-11T04:06:42.267Z, 58.34
2023-04-11T04:07:42.267Z, 67.00
2023-04-11T04:08:42.238Z, 63.80
2023-04-11T04:09:42.412Z, 55.67
2023-04-11T04:10:42.281Z, 54.57
2023-04-11T04:11:42.420Z, 56.03
2023-04-11T04:12:42.408Z, 57.99
2023-04-11T04:13:42.438Z, 63.38
2023-04-11T04:14:42.407Z, 67.67
2023-04-11T04:15:42.600Z, 59.53
2023-04-11T04:16:42.630Z, 56.69
2023-04-11T04:17:42.477Z, 55.97
2023-04-11T04:18:42.439Z, 56.42
2023-04-11T04:19:42.439Z, 57.00
2023-04-11T04:20:42.634Z, 57.42
2023-04-11T04:21:42.588Z, 59.10
2023-04-11T04:22:42.599Z, 59.49
2023-04-11T04:23:42.588Z, 59.36
2023-04-11T04:24:42.594Z, 59.24
2023-04-11T04:25:42.596Z, 59.06
2023-04-11T04:26:42.591Z, 58.83
2023-04-11T04:27:42.598Z, 58.55
2023-04-11T04:28:42.605Z, 58.14
2023-04-11T04:29:42.589Z, 57.70
2023-04-11T04:30:42.764Z, 57.51
2023-04-11T04:31:42.690Z, 57.27
2023-04-11T04:32:42.816Z, 57.08
2023-04-11T04:33:42.898Z, 56.92
2023-04-11T04:34:42.789Z, 56.53
2023-04-11T04:35:42.795Z, 56.28
2023-04-11T04:36:42.770Z, 56.02
2023-04-11T04:37:42.780Z, 55.66
2023-04-11T04:38:42.769Z, 55.69
2023-04-11T04:39:42.802Z, 55.53
2023-04-11T04:40:42.774Z, 55.23
2023-04-11T04:41:42.774Z, 55.04
2023-04-11T04:42:42.769Z, 54.69
2023-04-11T04:43:42.801Z, 54.39
2023-04-11T04:44:42.774Z, 54.33
2023-04-11T04:45:42.993Z, 54.37
2023-04-11T04:46:42.943Z, 54.21
2023-04-11T04:47:42.998Z, 54.00
2023-04-11T04:48:42.949Z, 53.74
2023-04-11T04:49:42.949Z, 53.39
2023-04-11T04:50:42.946Z, 53.08
2023-04-11T04:51:42.964Z, 52.99
2023-04-11T04:52:42.944Z, 53.22
2023-04-11T04:53:42.961Z, 53.25
2023-04-11T04:54:42.954Z, 53.08
2023-04-11T04:55:42.966Z, 52.92
2023-04-11T04:56:42.951Z, 52.65
2023-04-11T04:57:42.953Z, 52.34
2023-04-11T04:58:42.967Z, 51.99
2023-04-11T04:59:43.090Z, 51.78
2023-04-11T05:00:42.973Z, 51.54
2023-04-11T05:01:43.298Z, 51.41
2023-04-11T05:02:43.148Z, 51.73
2023-04-11T05:03:43.171Z, 51.99
2023-04-11T05:04:43.086Z, 52.01
2023-04-11T05:05:43.088Z, 51.97
2023-04-11T05:06:43.103Z, 51.86
2023-04-11T05:07:43.130Z, 51.71
2023-04-11T05:08:43.098Z, 51.48
2023-04-11T05:09:43.112Z, 51.14
2023-04-11T05:10:43.103Z, 50.87
2023-04-11T05:11:43.094Z, 50.63
2023-04-11T05:12:43.123Z, 50.49
2023-04-11T05:13:43.093Z, 50.32
2023-04-11T05:14:43.247Z, 50.25
2023-04-11T05:15:43.124Z, 50.15
2023-04-11T05:16:43.299Z, 50.04
2023-04-11T05:17:43.271Z, 49.92
2023-04-11T05:18:43.233Z, 49.86
2023-04-11T05:19:43.239Z, 49.75
2023-04-11T05:20:43.243Z, 49.61
2023-04-11T05:21:43.269Z, 49.49
2023-04-11T05:22:43.242Z, 49.31
2023-04-11T05:23:43.253Z, 49.22
2023-04-11T05:24:43.242Z, 49.17
2023-04-11T05:25:43.270Z, 49.03
2023-04-11T05:26:43.260Z, 48.94
2023-04-11T05:27:43.249Z, 48.90
2023-04-11T05:28:43.256Z, 48.87
2023-04-11T05:29:43.413Z, 48.79
2023-04-11T05:30:43.460Z, 48.69
2023-04-11T05:31:43.410Z, 48.61
2023-04-11T05:32:43.475Z, 48.59
2023-04-11T05:33:43.427Z, 48.54
2023-04-11T05:34:43.417Z, 48.45
2023-04-11T05:35:43.441Z, 48.38
2023-04-11T05:36:43.447Z, 48.38
2023-04-11T05:37:43.445Z, 48.36
2023-04-11T05:38:43.590Z, 48.25
2023-04-11T05:39:43.597Z, 48.27
2023-04-11T05:40:43.594Z, 48.18
2023-04-11T05:41:43.608Z, 48.11
2023-04-11T05:42:43.602Z, 48.14
2023-04-11T05:43:43.616Z, 48.14
2023-04-11T05:44:43.598Z, 48.06
2023-04-11T05:45:43.616Z, 47.97
2023-04-11T05:46:43.605Z, 47.94
2023-04-11T05:47:43.642Z, 47.93
2023-04-11T05:48:43.613Z, 47.89
2023-04-11T05:49:43.611Z, 47.81
2023-04-11T05:50:43.606Z, 47.76
2023-04-11T05:51:43.614Z, 47.69
2023-04-11T05:52:43.610Z, 47.63
2023-04-11T05:53:43.602Z, 47.65
2023-04-11T05:54:43.623Z, 47.61
2023-04-11T05:55:43.611Z, 47.63
2023-04-11T05:56:43.782Z, 47.59
2023-04-11T05:57:43.782Z, 47.60
2023-04-11T05:58:43.792Z, 47.52
2023-04-11T05:59:43.781Z, 47.47
2023-04-11T06:00:43.782Z, 47.37
2023-04-11T06:01:43.829Z, 47.43
2023-04-11T06:02:43.937Z, 47.36
2023-04-11T06:03:43.843Z, 47.37
2023-04-11T06:04:43.974Z, 47.30
2023-04-11T06:05:43.784Z, 47.25
2023-04-11T06:06:43.793Z, 47.32
2023-04-11T06:07:43.785Z, 47.32
2023-04-11T06:08:43.785Z, 47.31
2023-04-11T06:09:43.789Z, 47.26
2023-04-11T06:10:43.806Z, 47.21
2023-04-11T06:11:43.963Z, 47.17
2023-04-11T06:12:43.965Z, 47.13
2023-04-11T06:13:43.974Z, 47.16
2023-04-11T06:14:43.966Z, 47.05
2023-04-11T06:15:43.984Z, 47.01
2023-04-11T06:16:43.962Z, 46.98
2023-04-11T06:17:44.065Z, 47.03
2023-04-11T06:18:43.984Z, 47.04
2023-04-11T06:19:43.969Z, 47.00
2023-04-11T06:20:43.977Z, 47.00
2023-04-11T06:21:43.982Z, 46.86
2023-04-11T06:22:43.966Z, 46.78
2023-04-11T06:23:43.999Z, 46.78
2023-04-11T06:24:43.972Z, 46.71
2023-04-11T06:25:44.134Z, 46.71
2023-04-11T06:26:44.136Z, 46.78
2023-04-11T06:27:44.153Z, 46.79
2023-04-11T06:28:44.158Z, 46.79
2023-04-11T06:29:44.141Z, 46.77
2023-04-11T06:30:44.140Z, 46.79
2023-04-11T06:31:44.200Z, 46.76
2023-04-11T06:32:44.173Z, 46.70
2023-04-11T06:33:44.147Z, 46.71
2023-04-11T06:34:44.155Z, 46.63
2023-04-11T06:35:44.211Z, 46.55
2023-04-11T06:36:44.147Z, 46.50
2023-04-11T06:37:44.149Z, 46.51
2023-04-11T06:38:44.317Z, 46.59
2023-04-11T06:39:44.152Z, 46.51
2023-04-11T06:40:44.174Z, 46.47
2023-04-11T06:41:44.179Z, 46.45
2023-04-11T06:42:44.177Z, 46.45
2023-04-11T06:43:44.326Z, 46.50
2023-04-11T06:44:44.429Z, 46.45
2023-04-11T06:45:44.321Z, 46.37
2023-04-11T06:46:44.374Z, 46.36
2023-04-11T06:47:44.371Z, 46.31
2023-04-11T06:48:44.333Z, 46.25
2023-04-11T06:49:44.333Z, 46.24
2023-04-11T06:50:44.330Z, 46.24
2023-04-11T06:51:44.364Z, 46.21
2023-04-11T06:52:44.334Z, 46.17
2023-04-11T06:53:44.365Z, 46.19
2023-04-11T06:54:44.339Z, 46.17
2023-04-11T06:55:44.338Z, 46.11
2023-04-11T06:56:44.380Z, 46.10
2023-04-11T06:57:44.376Z, 46.05
2023-04-11T06:58:44.504Z, 46.06
2023-04-11T06:59:44.366Z, 46.04
2023-04-11T07:00:44.507Z, 46.08
2023-04-11T07:01:44.576Z, 46.06
2023-04-11T07:02:44.791Z, 45.93
2023-04-11T07:03:44.691Z, 45.98
2023-04-11T07:04:44.690Z, 45.96
2023-04-11T07:05:44.519Z, 45.91
2023-04-11T07:06:44.521Z, 45.96
2023-04-11T07:07:44.520Z, 45.93
2023-04-11T07:08:44.544Z, 45.90
2023-04-11T07:09:44.521Z, 45.86
2023-04-11T07:10:44.565Z, 45.88
2023-04-11T07:11:44.543Z, 45.90
2023-04-11T07:12:44.582Z, 45.87
2023-04-11T07:13:44.586Z, 45.86
2023-04-11T07:14:44.580Z, 45.92
2023-04-11T07:15:44.646Z, 45.89
2023-04-11T07:16:44.631Z, 45.79
2023-04-11T07:17:44.615Z, 45.77
2023-04-11T07:18:44.590Z, 45.77
2023-04-11T07:19:44.587Z, 45.69
2023-04-11T07:20:44.580Z, 45.75
2023-04-11T07:21:44.583Z, 45.72
2023-04-11T07:22:44.586Z, 45.71
2023-04-11T07:23:44.586Z, 45.71
2023-04-11T07:24:44.581Z, 45.64
2023-04-11T07:25:44.686Z, 45.66
2023-04-11T07:26:44.619Z, 45.63
2023-04-11T07:27:44.621Z, 45.56
2023-04-11T07:28:44.628Z, 45.56
2023-04-11T07:29:44.709Z, 45.60
2023-04-11T07:30:44.679Z, 45.51
2023-04-11T07:31:44.720Z, 45.56
2023-04-11T07:32:44.781Z, 45.55
2023-04-11T07:33:44.692Z, 45.54
2023-04-11T07:34:44.826Z, 45.46
2023-04-11T07:35:44.799Z, 45.48
2023-04-11T07:36:44.807Z, 45.44
2023-04-11T07:37:44.788Z, 45.46
2023-04-11T07:38:44.800Z, 45.44
2023-04-11T07:39:44.797Z, 45.41
2023-04-11T07:40:44.815Z, 45.35
2023-04-11T07:41:44.857Z, 45.40
2023-04-11T07:42:44.812Z, 45.31
2023-04-11T07:43:44.804Z, 45.28
2023-04-11T07:44:44.833Z, 45.19
2023-04-11T07:45:44.887Z, 45.19
2023-04-11T07:46:44.844Z, 45.28
2023-04-11T07:47:44.946Z, 45.18
2023-04-11T07:48:44.890Z, 45.15
2023-04-11T07:49:44.892Z, 45.21
2023-04-11T07:50:44.890Z, 45.14
2023-04-11T07:51:44.892Z, 45.18
2023-04-11T07:52:44.910Z, 45.10
2023-04-11T07:53:44.929Z, 45.10
2023-04-11T07:54:44.975Z, 45.12
2023-04-11T07:55:44.970Z, 45.06
2023-04-11T07:56:44.958Z, 45.01
2023-04-11T07:57:44.964Z, 44.97
2023-04-11T07:58:45.001Z, 44.99
2023-04-11T07:59:45.026Z, 44.99
2023-04-11T08:00:45.009Z, 44.98
2023-04-11T08:01:45.066Z, 45.05
2023-04-11T08:02:45.186Z, 45.02
2023-04-11T08:03:45.168Z, 44.90
2023-04-11T08:04:45.202Z, 44.87
2023-04-11T08:05:45.145Z, 44.86
2023-04-11T08:06:45.142Z, 44.89
2023-04-11T08:07:45.128Z, 44.84
2023-04-11T08:08:45.174Z, 44.85
2023-04-11T08:09:45.147Z, 44.78
2023-04-11T08:10:45.209Z, 44.75
2023-04-11T08:11:45.179Z, 44.82
2023-04-11T08:12:45.213Z, 44.77
2023-04-11T08:13:45.276Z, 44.81
2023-04-11T08:14:45.199Z, 44.77
2023-04-11T08:15:45.210Z, 44.80
2023-04-11T08:16:45.239Z, 44.76
2023-04-11T08:17:45.324Z, 44.76
2023-04-11T08:18:45.274Z, 44.70
2023-04-11T08:19:45.277Z, 44.67
2023-04-11T08:20:45.277Z, 44.62
2023-04-11T08:21:45.281Z, 44.63
2023-04-11T08:22:45.291Z, 44.54
2023-04-11T08:23:45.297Z, 44.58
2023-04-11T08:24:45.301Z, 44.52
2023-04-11T08:25:45.313Z, 44.48
2023-04-11T08:26:45.338Z, 44.48
2023-04-11T08:27:45.333Z, 44.44
2023-04-11T08:28:45.422Z, 44.43
2023-04-11T08:29:45.379Z, 44.40
2023-04-11T08:30:45.459Z, 44.40
2023-04-11T08:31:45.455Z, 44.34
2023-04-11T08:32:45.631Z, 44.43
2023-04-11T08:33:45.457Z, 44.36
2023-04-11T08:34:45.470Z, 44.36
2023-04-11T08:35:45.500Z, 44.36
2023-04-11T08:36:45.456Z, 44.33
2023-04-11T08:37:45.537Z, 44.27
2023-04-11T08:38:45.511Z, 44.29
2023-04-11T08:39:45.571Z, 44.27
2023-04-11T08:40:45.559Z, 44.28
2023-04-11T08:41:45.565Z, 44.20
2023-04-11T08:42:45.545Z, 44.19
2023-04-11T08:43:45.554Z, 44.21
2023-04-11T08:44:45.595Z, 44.26
2023-04-11T08:45:45.609Z, 44.22
2023-04-11T08:46:45.592Z, 44.16
2023-04-11T08:47:46.094Z, 44.19
2023-04-11T08:48:45.612Z, 44.19
2023-04-11T08:49:45.677Z, 44.17
2023-04-11T08:50:45.669Z, 44.19
2023-04-11T08:51:45.681Z, 44.18
2023-04-11T08:52:45.654Z, 44.13
2023-04-11T08:53:45.664Z, 44.11
2023-04-11T08:54:45.733Z, 44.06
2023-04-11T08:55:45.699Z, 44.08
2023-04-11T08:56:45.771Z, 44.04
2023-04-11T08:57:45.793Z, 44.05
2023-04-11T08:58:45.756Z, 44.01
2023-04-11T08:59:45.777Z, 44.01
2023-04-11T09:00:45.766Z, 43.98
2023-04-11T09:01:45.922Z, 43.96
2023-04-11T09:02:46.143Z, 43.91
2023-04-11T09:03:45.835Z, 43.88
2023-04-11T09:04:45.862Z, 43.81
2023-04-11T09:05:45.838Z, 43.81
2023-04-11T09:06:45.912Z, 43.83
2023-04-11T09:07:45.909Z, 43.85
2023-04-11T09:08:45.917Z, 43.83
2023-04-11T09:09:45.895Z, 43.80
2023-04-11T09:10:45.910Z, 43.74
2023-04-11T09:11:45.968Z, 43.79
2023-04-11T09:12:46.013Z, 43.75
2023-04-11T09:13:45.980Z, 43.73
2023-04-11T09:14:46.023Z, 43.68
2023-04-11T09:15:46.018Z, 43.72
2023-04-11T09:16:45.974Z, 43.71
2023-04-11T09:17:46.006Z, 43.62
2023-04-11T09:18:46.018Z, 43.51
2023-04-11T09:19:48.858Z, 43.59
2023-04-11T09:20:46.006Z, 43.59
2023-04-11T09:21:46.021Z, 43.56
2023-04-11T09:22:46.119Z, 43.58
2023-04-11T09:23:46.092Z, 43.54
2023-04-11T09:24:46.133Z, 43.52
2023-04-11T09:25:46.113Z, 43.37
2023-04-11T09:26:46.168Z, 43.44
2023-04-11T09:27:46.145Z, 43.44
2023-04-11T09:28:46.211Z, 43.49
2023-04-11T09:29:46.173Z, 43.47
2023-04-11T09:30:46.258Z, 43.38
2023-04-11T09:31:46.245Z, 43.36
2023-04-11T09:32:46.263Z, 43.37
2023-04-11T09:33:46.260Z, 43.42
2023-04-11T09:34:46.217Z, 43.32
2023-04-11T09:35:46.312Z, 43.28
2023-04-11T09:36:46.263Z, 43.36
2023-04-11T09:37:46.310Z, 43.36
2023-04-11T09:38:46.285Z, 43.27
2023-04-11T09:39:46.350Z, 43.29
2023-04-11T09:40:46.323Z, 43.26
2023-04-11T09:41:46.375Z, 43.17
2023-04-11T09:42:46.348Z, 43.15
2023-04-11T09:43:46.327Z, 43.24
2023-04-11T09:44:46.327Z, 43.16
2023-04-11T09:45:54.008Z, 43.10
2023-04-11T09:46:46.436Z, 43.15
2023-04-11T09:47:46.428Z, 43.12
2023-04-11T09:48:47.140Z, 43.10
2023-04-11T09:49:46.392Z, 43.07
2023-04-11T09:50:46.455Z, 43.15
2023-04-11T09:51:46.435Z, 43.15
2023-04-11T09:52:46.494Z, 43.12
2023-04-11T09:53:46.453Z, 43.16
2023-04-11T09:54:46.458Z, 43.11
2023-04-11T09:55:46.456Z, 43.08
2023-04-11T09:56:46.469Z, 43.09
2023-04-11T09:57:46.533Z, 43.04
2023-04-11T09:58:46.499Z, 43.04
2023-04-11T09:59:46.526Z, 43.02
2023-04-11T10:00:46.530Z, 43.03
2023-04-11T10:01:46.667Z, 44.15
2023-04-11T10:02:46.667Z, 45.13
2023-04-11T10:03:46.672Z, 45.94
2023-04-11T10:04:46.647Z, 46.27
2023-04-11T10:05:47.098Z, 46.40
2023-04-11T10:06:46.631Z, 46.52
2023-04-11T10:07:46.623Z, 46.56
2023-04-11T10:08:46.613Z, 46.70
2023-04-11T10:09:46.609Z, 46.78
2023-04-11T10:10:46.678Z, 46.82
2023-04-11T10:11:46.670Z, 46.85
2023-04-11T10:12:46.723Z, 46.87
2023-04-11T10:13:46.700Z, 46.91
2023-04-11T10:14:46.740Z, 46.93
2023-04-11T10:15:46.708Z, 46.97
2023-04-11T10:16:46.788Z, 46.95
2023-04-11T10:17:46.769Z, 46.97
2023-04-11T10:18:46.748Z, 46.92
2023-04-11T10:19:46.748Z, 46.95
2023-04-11T10:20:46.764Z, 46.94
2023-04-11T10:21:46.765Z, 46.92
2023-04-11T10:22:46.838Z, 46.85
2023-04-11T10:23:46.870Z, 46.85
2023-04-11T10:24:46.842Z, 46.77
2023-04-11T10:25:46.846Z, 46.78
2023-04-11T10:26:46.853Z, 46.74
2023-04-11T10:27:46.853Z, 46.75
2023-04-11T10:28:46.921Z, 46.72
2023-04-11T10:29:47.557Z, 46.69
2023-04-11T10:30:46.952Z, 46.63
2023-04-11T10:31:46.952Z, 46.44
2023-04-11T10:32:46.982Z, 46.30
2023-04-11T10:33:46.928Z, 46.38
2023-04-11T10:34:47.007Z, 46.18
2023-04-11T10:35:47.018Z, 45.90
2023-04-11T10:36:46.961Z, 45.70
2023-04-11T10:37:46.979Z, 45.50
2023-04-11T10:38:46.971Z, 45.38
2023-04-11T10:39:47.042Z, 45.21
2023-04-11T10:40:47.040Z, 45.07
2023-04-11T10:41:47.083Z, 45.02
2023-04-11T10:42:47.105Z, 44.98
2023-04-11T10:43:47.085Z, 44.87
2023-04-11T10:44:47.070Z, 44.75
2023-04-11T10:45:47.076Z, 44.71
2023-04-11T10:46:47.244Z, 44.73
2023-04-11T10:47:47.161Z, 44.63
2023-04-11T10:48:47.093Z, 44.53
2023-04-11T10:49:47.418Z, 44.44
2023-04-11T10:50:47.195Z, 44.32
2023-04-11T10:51:47.151Z, 44.33
2023-04-11T10:52:47.194Z, 44.32
2023-04-11T10:53:47.206Z, 44.26
2023-04-11T10:54:47.229Z, 44.22
2023-04-11T10:55:47.204Z, 44.24
2023-04-11T10:56:47.229Z, 44.21
2023-04-11T10:57:47.224Z, 44.17
2023-04-11T10:58:47.218Z, 44.12
2023-04-11T10:59:47.234Z, 44.12
2023-04-11T11:00:47.284Z, 44.10
2023-04-11T11:01:52.321Z, 44.05
2023-04-11T11:02:47.448Z, 44.01
2023-04-11T11:03:47.534Z, 43.97
2023-04-11T11:04:47.598Z, 43.97
2023-04-11T11:05:47.330Z, 43.94
2023-04-11T11:06:56.440Z, 43.92
2023-04-11T11:07:47.335Z, 43.90
2023-04-11T11:08:47.387Z, 43.87
2023-04-11T11:09:47.367Z, 43.82
2023-04-11T11:10:47.417Z, 43.84
2023-04-11T11:11:47.400Z, 43.81
2023-04-11T11:12:47.439Z, 43.74
2023-04-11T11:13:47.404Z, 43.73
2023-04-11T11:14:47.577Z, 43.70
2023-04-11T11:15:47.458Z, 43.66
2023-04-11T11:16:47.456Z, 43.69
2023-04-11T11:17:47.475Z, 43.66
2023-04-11T11:18:47.462Z, 43.66
2023-04-11T11:19:47.521Z, 43.63
2023-04-11T11:20:47.501Z, 43.59
2023-04-11T11:21:47.477Z, 43.62
2023-04-11T11:22:47.493Z, 43.61
2023-04-11T11:23:47.517Z, 43.62
2023-04-11T11:24:47.508Z, 43.59
2023-04-11T11:25:47.567Z, 43.56
2023-04-11T11:26:47.547Z, 43.53
2023-04-11T11:27:47.556Z, 43.50
2023-04-11T11:28:47.599Z, 43.53
2023-04-11T11:29:47.567Z, 43.50
2023-04-11T11:30:47.638Z, 43.47
2023-04-11T11:31:47.702Z, 43.47
2023-04-11T11:32:47.686Z, 43.47
2023-04-11T11:33:47.655Z, 43.44
2023-04-11T11:34:47.706Z, 43.45
2023-04-11T11:35:47.686Z, 43.43
2023-04-11T11:36:47.710Z, 43.42
2023-04-11T11:37:47.686Z, 43.43
2023-04-11T11:38:47.694Z, 43.39
2023-04-11T11:39:47.712Z, 43.33
2023-04-11T11:40:47.715Z, 43.26
2023-04-11T11:41:47.746Z, 43.28
2023-04-11T11:42:47.760Z, 43.27
2023-04-11T11:43:47.825Z, 43.27
2023-04-11T11:44:47.815Z, 43.19
2023-04-11T11:45:47.870Z, 43.23
2023-04-11T11:46:47.818Z, 43.17
2023-04-11T11:47:47.923Z, 43.13
2023-04-11T11:48:47.836Z, 43.15
2023-04-11T11:49:47.832Z, 43.09
2023-04-11T11:50:47.841Z, 43.11
2023-04-11T11:51:47.900Z, 43.10
2023-04-11T11:52:47.901Z, 43.10
2023-04-11T11:53:47.884Z, 43.11
2023-04-11T11:54:47.916Z, 43.09
2023-04-11T11:55:47.897Z, 43.06
2023-04-11T11:56:48.002Z, 42.97
2023-04-11T11:57:47.973Z, 42.99
2023-04-11T11:58:47.966Z, 42.97
2023-04-11T11:59:47.972Z, 42.90
2023-04-11T12:00:48.048Z, 42.87
2023-04-11T12:01:48.088Z, 42.84
2023-04-11T12:02:48.282Z, 42.81
2023-04-11T12:03:48.285Z, 42.82
2023-04-11T12:04:48.186Z, 42.85
2023-04-11T12:05:48.056Z, 42.87
2023-04-11T12:06:48.061Z, 42.83
2023-04-11T12:07:48.140Z, 42.84
2023-04-11T12:08:48.138Z, 42.86
2023-04-11T12:09:48.175Z, 42.85
2023-04-11T12:10:48.163Z, 42.86
2023-04-11T12:11:48.165Z, 42.84
2023-04-11T12:13:48.153Z, 42.78
2023-04-11T12:14:48.179Z, 42.73
2023-04-11T12:15:48.203Z, 42.67
2023-04-11T12:16:48.278Z, 42.62
2023-04-11T12:17:48.313Z, 42.59
2023-04-11T12:18:48.224Z, 42.55
2023-04-11T12:19:48.263Z, 42.60
2023-04-11T12:20:48.254Z, 42.58
2023-04-11T12:21:48.320Z, 42.48
2023-04-11T12:22:48.309Z, 42.49
2023-04-11T12:23:48.310Z, 42.57
2023-04-11T12:24:48.315Z, 42.49
2023-04-11T12:25:48.306Z, 42.48
2023-04-11T12:27:05.717Z, 42.51
2023-04-11T12:27:48.358Z, 42.52
2023-04-11T12:28:48.418Z, 42.53
2023-04-11T12:29:48.382Z, 42.42